LIPE/BLQ METAR and TAF weather

Enter ICAO airport designator
Station Type Date Time Source
LIPE METAR 2019/08/25 18:20 UTC NOAA

LIPE 251820Z 36002KT CAVOK 28/19 Q1016


Station Type Date Time Source
LIPE Decoded METAR 2019/08/25 18:20 UTC NOAA

Station name not available
Aug 25, 2019 - 02:20 PM EDT / 2019.08.25 1820 UTC
Wind: from the N (360 degrees) at 2 MPH (2 KT):0
Visibility: greater than 7 mile(s):0
Temperature: 82 F (28 C)
Dew Point: 66 F (19 C)
Relative Humidity: 58%
Pressure (altimeter): 30.00 in. Hg (1016 hPa)
ob: LIPE 251820Z 36002KT CAVOK 28/19 Q1016
cycle: 18

Station Type Date Time Source
LIPE TAF 2019/08/25 18:21 UTC NOAA

TAF LIPE 251700Z 2518/2618 VRB05KT 9999 SCT040
TEMPO 2615/2619 4000 TSRA

Example: see airport list